Time;durP1;ratioP1;P1;durP2;ratioP2;P2;SDS_P1;SDS_P2;PMS_P1;PMS_P2;Temp;Humidity;BMP_temperature;BMP_pressure;BME280_temperature;BME280_humidity;BME280_pressure;Samples;Min_cycle;Max_cycle;Signal;HPM_P1;HPM_P2
2023/10/26 00:01:26;;;;;;;15.63;11.77;;;10.60;99.90;;;;;;5048880;28;20429;-71
2023/10/26 00:03:52;;;;;;;18.73;12.35;;;10.60;99.90;;;;;;5048915;28;20132;-71
2023/10/26 00:06:18;;;;;;;18.65;11.10;;;10.50;99.90;;;;;;5048890;28;20474;-72
2023/10/26 00:08:43;;;;;;;19.45;11.52;;;10.50;99.90;;;;;;5048433;28;20085;-71
2023/10/26 00:11:09;;;;;;;17.23;10.82;;;10.50;99.90;;;;;;5048218;28;20385;-71
2023/10/26 00:13:35;;;;;;;17.35;10.98;;;10.60;99.90;;;;;;5048454;28;20136;-72
2023/10/26 00:16:00;;;;;;;21.95;11.80;;;10.60;99.90;;;;;;5047125;28;20487;-71
2023/10/26 00:18:26;;;;;;;16.83;10.40;;;10.50;99.90;;;;;;5048523;28;20045;-71
2023/10/26 00:20:59;;;;;;;18.20;10.63;;;10.50;99.90;;;;;;5048563;28;20053;-71
2023/10/26 00:23:25;;;;;;;15.63;10.82;;;10.50;99.90;;;;;;5048467;28;20048;-71
2023/10/26 00:25:50;;;;;;;19.67;11.90;;;10.50;99.90;;;;;;5046723;28;20080;-71
2023/10/26 00:28:16;;;;;;;20.65;12.05;;;10.50;99.90;;;;;;5048251;28;20099;-71
2023/10/26 00:30:42;;;;;;;18.70;11.73;;;10.50;99.90;;;;;;5048407;28;20044;-71
2023/10/26 00:33:08;;;;;;;20.38;11.40;;;10.50;99.90;;;;;;5048329;28;20061;-72
2023/10/26 00:35:34;;;;;;;21.55;11.43;;;10.40;99.90;;;;;;5048422;28;20055;-71
2023/10/26 00:38:00;;;;;;;21.42;11.32;;;10.40;99.90;;;;;;5048627;28;20045;-72
2023/10/26 00:40:25;;;;;;;17.88;11.80;;;10.50;99.90;;;;;;5048233;28;20044;-71
2023/10/26 00:42:57;;;;;;;19.35;11.82;;;10.40;99.90;;;;;;5048057;28;20534;-72
2023/10/26 00:45:23;;;;;;;20.02;12.00;;;10.40;99.90;;;;;;5046971;28;20060;-71
2023/10/26 00:47:50;;;;;;;21.05;11.38;;;10.40;99.90;;;;;;5046569;28;20052;-72
2023/10/26 00:50:16;;;;;;;18.65;11.40;;;10.40;99.90;;;;;;5047931;28;20053;-71
2023/10/26 00:52:42;;;;;;;19.88;11.65;;;10.40;99.90;;;;;;5048244;28;20053;-71
2023/10/26 00:55:09;;;;;;;25.10;12.85;;;10.40;99.90;;;;;;5047945;28;20164;-71
2023/10/26 00:57:36;;;;;;;17.75;11.82;;;10.50;99.90;;;;;;5049030;28;20049;-72
2023/10/26 01:00:03;;;;;;;20.80;12.52;;;10.50;99.90;;;;;;5033902;28;20056;-71
2023/10/26 01:02:29;;;;;;;18.70;12.30;;;10.40;99.90;;;;;;5051704;28;20584;-71
2023/10/26 01:04:54;;;;;;;19.15;12.20;;;10.40;99.90;;;;;;5051644;28;20045;-72
2023/10/26 01:07:20;;;;;;;20.90;12.63;;;10.50;99.90;;;;;;5051697;28;20109;-71
2023/10/26 01:09:47;;;;;;;21.85;12.85;;;10.40;99.90;;;;;;5051074;28;20053;-72
2023/10/26 01:12:13;;;;;;;23.67;14.05;;;10.50;99.90;;;;;;5050587;28;20511;-71
2023/10/26 01:14:39;;;;;;;22.90;14.45;;;10.50;99.90;;;;;;5051837;28;20057;-72
2023/10/26 01:17:05;;;;;;;25.05;14.25;;;10.50;99.90;;;;;;5051744;28;20138;-71
2023/10/26 01:19:42;;;;;;;27.33;16.00;;;10.50;99.90;;;;;;5051679;28;20056;-71
2023/10/26 01:22:08;;;;;;;22.48;15.05;;;10.50;99.90;;;;;;5051544;28;20574;-71
2023/10/26 01:24:34;;;;;;;25.85;16.52;;;10.40;99.90;;;;;;5049679;28;20053;-71
2023/10/26 01:26:59;;;;;;;27.55;16.00;;;10.50;99.90;;;;;;5051204;28;20068;-72
2023/10/26 01:29:25;;;;;;;26.25;16.05;;;10.50;99.90;;;;;;5051142;28;20110;-71
2023/10/26 01:31:51;;;;;;;27.83;17.13;;;10.50;99.90;;;;;;5051174;28;20045;-71
2023/10/26 01:34:17;;;;;;;28.00;16.30;;;10.50;99.90;;;;;;5051031;28;20477;-72
2023/10/26 01:36:43;;;;;;;27.90;16.60;;;10.50;99.90;;;;;;5051026;28;20057;-71
2023/10/26 01:39:08;;;;;;;26.58;16.70;;;10.40;99.90;;;;;;5049595;28;20408;-72
2023/10/26 01:41:34;;;;;;;27.35;16.88;;;10.50;99.90;;;;;;5049578;28;20554;-71
2023/10/26 01:44:01;;;;;;;27.25;16.42;;;10.50;99.90;;;;;;5049392;28;20102;-71
2023/10/26 01:46:27;;;;;;;27.10;16.80;;;10.50;99.90;;;;;;5050931;28;20128;-71
2023/10/26 01:48:52;;;;;;;28.08;17.35;;;10.50;99.90;;;;;;5050938;28;20047;-71
2023/10/26 01:51:18;;;;;;;25.73;16.95;;;10.50;99.90;;;;;;5050654;28;20083;-71
2023/10/26 01:53:44;;;;;;;30.35;17.67;;;10.50;99.90;;;;;;5050233;28;20060;-72
2023/10/26 01:56:10;;;;;;;27.30;16.48;;;10.40;99.90;;;;;;5050959;28;20114;-71
2023/10/26 01:58:35;;;;;;;27.58;17.27;;;10.50;99.90;;;;;;5050554;28;20052;-71
2023/10/26 02:01:01;;;;;;;25.95;16.48;;;10.50;99.90;;;;;;5050818;28;20049;-71
2023/10/26 02:03:27;;;;;;;28.45;17.63;;;10.40;99.90;;;;;;5050850;28;20049;-72
2023/10/26 02:05:52;;;;;;;26.35;17.35;;;10.40;99.90;;;;;;5050614;28;20382;-71
2023/10/26 02:08:18;;;;;;;31.35;17.73;;;10.40;99.90;;;;;;5050088;28;20049;-72
2023/10/26 02:10:44;;;;;;;29.75;17.50;;;10.40;99.90;;;;;;5049922;28;20084;-71
2023/10/26 02:13:10;;;;;;;30.65;18.27;;;10.40;99.90;;;;;;5050588;28;20048;-72
2023/10/26 02:15:36;;;;;;;28.58;18.92;;;10.40;99.90;;;;;;5050512;28;20052;-71
2023/10/26 02:18:02;;;;;;;26.30;17.80;;;10.30;99.90;;;;;;5050511;28;20401;-71
2023/10/26 02:20:28;;;;;;;27.77;17.88;;;10.40;99.90;;;;;;5050489;28;20171;-71
2023/10/26 02:22:53;;;;;;;28.52;18.67;;;10.30;99.90;;;;;;5050315;28;20500;-72
2023/10/26 02:25:22;;;;;;;27.27;17.88;;;10.30;99.90;;;;;;5048766;28;20544;-71
2023/10/26 02:27:47;;;;;;;29.13;18.05;;;10.30;99.90;;;;;;5049061;28;20187;-71
2023/10/26 02:30:13;;;;;;;29.80;17.85;;;10.30;99.90;;;;;;5050532;28;20091;-71
2023/10/26 02:32:40;;;;;;;37.47;19.40;;;10.30;99.90;;;;;;5050002;28;20041;-71
2023/10/26 02:35:06;;;;;;;33.83;19.85;;;10.30;99.90;;;;;;5049761;28;20051;-70
2023/10/26 02:37:38;;;;;;;31.63;18.45;;;10.30;99.90;;;;;;5049576;28;20156;-72
2023/10/26 02:40:08;;;;;;;29.67;18.70;;;10.30;99.90;;;;;;5049785;28;20063;-71
2023/10/26 02:42:35;;;;;;;32.17;19.42;;;10.30;99.90;;;;;;5050311;28;20057;-72
2023/10/26 02:45:03;;;;;;;33.25;18.95;;;10.30;99.90;;;;;;5048220;28;20111;-71
2023/10/26 02:47:29;;;;;;;31.38;19.65;;;10.30;99.90;;;;;;5049929;28;20045;-72
2023/10/26 02:49:55;;;;;;;33.00;19.67;;;10.30;99.90;;;;;;5048114;28;20060;-72
2023/10/26 02:52:20;;;;;;;32.70;20.52;;;10.40;99.90;;;;;;5049216;28;20104;-71
2023/10/26 02:54:46;;;;;;;38.83;21.70;;;10.30;99.90;;;;;;5049453;28;20060;-71
2023/10/26 02:57:14;;;;;;;32.45;20.95;;;10.30;99.90;;;;;;5048074;28;20109;-71
2023/10/26 02:59:40;;;;;;;36.38;21.33;;;10.30;99.90;;;;;;5049490;28;20045;-72
2023/10/26 03:02:06;;;;;;;38.90;20.83;;;10.30;99.90;;;;;;5048271;28;20044;-71
2023/10/26 03:04:34;;;;;;;38.80;21.33;;;10.30;99.90;;;;;;5049436;28;20080;-71
2023/10/26 03:07:00;;;;;;;37.30;21.08;;;10.30;99.90;;;;;;5049177;28;20099;-71
2023/10/26 03:09:26;;;;;;;33.70;21.23;;;10.40;99.90;;;;;;5049358;28;20072;-71
2023/10/26 03:11:52;;;;;;;37.70;23.17;;;10.30;99.90;;;;;;5049508;28;20052;-72
2023/10/26 03:14:18;;;;;;;36.40;21.10;;;10.30;99.90;;;;;;5047843;28;20063;-71
2023/10/26 03:16:44;;;;;;;34.25;20.58;;;10.40;99.90;;;;;;5049415;28;20178;-71
2023/10/26 03:19:10;;;;;;;35.05;20.55;;;10.40;99.90;;;;;;5049330;28;20140;-71
2023/10/26 03:21:36;;;;;;;33.63;21.52;;;10.30;99.90;;;;;;5046992;28;20568;-71
2023/10/26 03:24:02;;;;;;;41.92;24.15;;;10.40;99.90;;;;;;5049236;28;20057;-71
2023/10/26 03:26:28;;;;;;;33.47;20.52;;;10.40;99.90;;;;;;5049230;28;20060;-71
2023/10/26 03:28:54;;;;;;;35.42;20.67;;;10.40;99.90;;;;;;5049234;28;20057;-72
2023/10/26 03:31:19;;;;;;;34.90;21.33;;;10.40;99.90;;;;;;5031222;28;20398;-70
2023/10/26 03:33:45;;;;;;;32.60;20.15;;;10.30;99.90;;;;;;5048383;28;20132;-70
2023/10/26 03:36:15;;;;;;;38.90;22.58;;;10.30;99.90;;;;;;5050052;28;20560;-71
2023/10/26 03:38:42;;;;;;;37.58;21.98;;;10.30;99.90;;;;;;5049622;28;20089;-71
2023/10/26 03:41:08;;;;;;;37.30;21.88;;;10.30;99.90;;;;;;5049026;28;20053;-71
2023/10/26 03:43:33;;;;;;;40.17;22.30;;;10.30;99.90;;;;;;5049071;28;20128;-71
2023/10/26 03:45:59;;;;;;;38.80;22.42;;;10.30;99.90;;;;;;5049015;28;20128;-71
2023/10/26 03:48:25;;;;;;;38.70;22.33;;;10.30;99.90;;;;;;5048726;28;20053;-72
2023/10/26 03:50:51;;;;;;;40.63;23.98;;;10.30;99.90;;;;;;5048434;28;20126;-71
2023/10/26 03:53:16;;;;;;;43.22;24.15;;;10.30;99.90;;;;;;5047276;28;20511;-71
2023/10/26 03:55:42;;;;;;;39.38;22.30;;;10.30;99.90;;;;;;5048535;28;20057;-71
2023/10/26 03:58:08;;;;;;;37.63;22.50;;;10.30;99.90;;;;;;5048760;28;20053;-72
2023/10/26 04:00:34;;;;;;;39.45;22.83;;;10.40;99.90;;;;;;5048833;28;20060;-71
2023/10/26 04:02:59;;;;;;;42.50;22.65;;;10.30;99.90;;;;;;5047283;28;20044;-71
2023/10/26 04:05:25;;;;;;;39.88;22.13;;;10.40;99.90;;;;;;5048820;28;20068;-71
2023/10/26 04:07:51;;;;;;;38.15;22.33;;;10.30;99.90;;;;;;5048925;28;20137;-72
2023/10/26 04:10:17;;;;;;;39.65;22.92;;;10.30;99.90;;;;;;5048541;28;20052;-71
2023/10/26 04:12:44;;;;;;;39.28;21.92;;;10.30;99.90;;;;;;5048724;28;20093;-72
2023/10/26 04:15:09;;;;;;;36.15;22.45;;;10.30;99.90;;;;;;5048475;28;20500;-72
2023/10/26 04:17:35;;;;;;;36.05;21.85;;;10.30;99.90;;;;;;5048431;28;20056;-71
2023/10/26 04:20:01;;;;;;;37.70;22.80;;;10.30;99.90;;;;;;5048659;28;20092;-71
2023/10/26 04:22:27;;;;;;;41.28;24.35;;;10.40;99.90;;;;;;5049005;28;20069;-71
2023/10/26 04:24:53;;;;;;;36.90;20.88;;;10.30;99.90;;;;;;5048692;28;20048;-71
2023/10/26 04:27:19;;;;;;;34.80;21.65;;;10.30;99.90;;;;;;5048513;28;20045;-72
2023/10/26 04:29:45;;;;;;;37.75;22.13;;;10.30;99.90;;;;;;5048485;28;20555;-71
2023/10/26 04:32:11;;;;;;;37.85;21.58;;;10.30;99.90;;;;;;5047050;28;20187;-71
2023/10/26 04:34:43;;;;;;;40.22;22.35;;;10.30;99.90;;;;;;5052487;28;20056;-71
2023/10/26 04:37:11;;;;;;;37.40;22.17;;;10.30;99.90;;;;;;5052326;28;20416;-72
2023/10/26 04:39:41;;;;;;;36.47;22.30;;;10.30;99.90;;;;;;5052205;28;20049;-71
2023/10/26 04:42:07;;;;;;;40.20;22.80;;;10.30;99.90;;;;;;5052099;28;20130;-71
2023/10/26 04:44:33;;;;;;;37.63;23.58;;;10.30;99.90;;;;;;5051921;28;20048;-71
2023/10/26 04:46:59;;;;;;;38.28;23.15;;;10.30;99.90;;;;;;5052015;28;20049;-71
2023/10/26 04:49:24;;;;;;;38.78;22.80;;;10.20;99.90;;;;;;5052221;28;20063;-71
2023/10/26 04:51:50;;;;;;;41.22;22.08;;;10.30;99.90;;;;;;5051719;28;20049;-71
2023/10/26 04:54:16;;;;;;;43.35;24.55;;;10.30;99.90;;;;;;5052000;28;20060;-71
2023/10/26 04:56:42;;;;;;;37.78;22.52;;;10.30;99.90;;;;;;5051693;28;20136;-71
2023/10/26 04:59:08;;;;;;;37.92;22.23;;;10.30;99.90;;;;;;5051504;28;20092;-71
2023/10/26 05:01:33;;;;;;;36.20;21.60;;;10.30;99.90;;;;;;5051698;28;20056;-71
2023/10/26 05:03:59;;;;;;;37.28;21.92;;;10.30;99.90;;;;;;5051505;28;20091;-71
2023/10/26 05:06:25;;;;;;;37.10;22.55;;;10.30;99.90;;;;;;5051916;28;20060;-71
2023/10/26 05:08:50;;;;;;;36.25;21.67;;;10.30;99.90;;;;;;5051679;28;20451;-71
2023/10/26 05:11:16;;;;;;;39.05;23.73;;;10.20;99.90;;;;;;5050050;28;20078;-71
2023/10/26 05:13:42;;;;;;;40.03;22.83;;;10.30;99.90;;;;;;5051516;28;20118;-71
2023/10/26 05:16:08;;;;;;;39.17;22.38;;;10.30;99.90;;;;;;5051343;28;20049;-71
2023/10/26 05:18:33;;;;;;;42.17;22.33;;;10.20;99.90;;;;;;5050681;28;20133;-71
2023/10/26 05:20:59;;;;;;;38.50;24.10;;;10.30;99.90;;;;;;5051614;28;20049;-71
2023/10/26 05:23:25;;;;;;;42.63;22.50;;;10.20;99.90;;;;;;5051588;28;20045;-70
2023/10/26 05:25:51;;;;;;;37.42;23.08;;;10.20;99.90;;;;;;5051323;28;20049;-71
2023/10/26 05:28:17;;;;;;;35.15;22.00;;;10.20;99.90;;;;;;5051160;28;20057;-72
2023/10/26 05:30:43;;;;;;;37.80;22.77;;;10.20;99.90;;;;;;5051407;28;20102;-70
2023/10/26 05:33:08;;;;;;;37.25;22.73;;;10.20;99.90;;;;;;5051337;28;20401;-72
2023/10/26 05:35:35;;;;;;;36.80;22.80;;;10.30;99.90;;;;;;5051083;28;20049;-71
2023/10/26 05:38:03;;;;;;;51.25;25.13;;;10.20;99.90;;;;;;5049799;28;20056;-72
2023/10/26 05:40:30;;;;;;;41.40;23.25;;;10.20;99.90;;;;;;5049747;28;20061;-71
2023/10/26 05:42:55;;;;;;;38.10;21.58;;;10.20;99.90;;;;;;5049185;28;20052;-71
2023/10/26 05:45:21;;;;;;;37.42;21.90;;;10.20;99.90;;;;;;5050501;28;20041;-71
2023/10/26 05:47:52;;;;;;;39.47;21.35;;;10.10;99.90;;;;;;5050996;28;20051;-71
2023/10/26 05:50:19;;;;;;;42.75;22.75;;;10.20;99.90;;;;;;5049351;28;20106;-71
2023/10/26 05:52:45;;;;;;;40.13;22.00;;;10.20;99.90;;;;;;5050880;28;20450;-71
2023/10/26 05:55:10;;;;;;;37.17;22.70;;;10.20;99.90;;;;;;5054909;28;20049;-71
2023/10/26 05:57:36;;;;;;;41.00;22.30;;;10.20;99.90;;;;;;5052220;28;20049;-72
2023/10/26 06:00:06;;;;;;;38.53;22.35;;;10.20;99.90;;;;;;5051260;28;20052;-72
2023/10/26 06:02:32;;;;;;;39.55;22.48;;;10.20;99.90;;;;;;5050755;28;20128;-72
2023/10/26 06:04:58;;;;;;;40.53;22.85;;;10.20;99.90;;;;;;5050713;28;20472;-73
2023/10/26 06:07:24;;;;;;;39.38;22.33;;;10.10;99.90;;;;;;5049129;28;20057;-72
2023/10/26 06:09:50;;;;;;;37.00;21.55;;;10.10;99.90;;;;;;5050640;28;20052;-72
2023/10/26 06:12:16;;;;;;;39.67;22.92;;;10.10;99.90;;;;;;5049108;28;20045;-72
2023/10/26 06:14:43;;;;;;;36.47;22.67;;;10.10;99.90;;;;;;5051261;28;20045;-72
2023/10/26 06:17:10;;;;;;;37.95;23.98;;;10.10;99.90;;;;;;5050223;28;20420;-73
2023/10/26 06:19:35;;;;;;;43.08;23.52;;;10.10;99.90;;;;;;5048525;28;20053;-73
2023/10/26 06:22:01;;;;;;;37.38;21.50;;;10.10;99.90;;;;;;5051373;28;20060;-71
2023/10/26 06:24:27;;;;;;;40.63;22.33;;;10.10;99.90;;;;;;5050917;28;20779;-73
2023/10/26 06:26:53;;;;;;;35.90;22.20;;;10.00;99.90;;;;;;5050211;28;20048;-74
2023/10/26 06:29:19;;;;;;;34.88;20.55;;;10.10;99.90;;;;;;5048564;28;20052;-73
2023/10/26 06:31:45;;;;;;;38.53;21.63;;;10.00;99.90;;;;;;5050930;28;20053;-73
2023/10/26 06:34:11;;;;;;;43.25;22.00;;;10.00;99.90;;;;;;5049966;28;20063;-73
2023/10/26 06:36:37;;;;;;;42.05;23.33;;;10.00;99.90;;;;;;5050309;28;20041;-73
2023/10/26 06:39:02;;;;;;;34.25;20.73;;;10.00;99.90;;;;;;5050194;28;20051;-73
2023/10/26 06:41:28;;;;;;;38.15;21.35;;;10.00;99.90;;;;;;5056879;28;20045;-73
2023/10/26 06:43:55;;;;;;;35.72;21.77;;;9.90;99.90;;;;;;5065865;28;20408;-72
2023/10/26 06:46:22;;;;;;;35.35;21.85;;;9.90;99.90;;;;;;5061160;28;20037;-73
2023/10/26 06:48:51;;;;;;;37.08;21.52;;;9.90;99.90;;;;;;5057173;28;20064;-73
2023/10/26 06:51:18;;;;;;;38.63;21.58;;;9.90;99.90;;;;;;5059534;28;20056;-73
2023/10/26 06:53:45;;;;;;;36.17;20.15;;;10.00;99.90;;;;;;5057422;28;20185;-73
2023/10/26 06:56:19;;;;;;;38.78;20.70;;;9.90;99.90;;;;;;5063949;28;20091;-73
2023/10/26 06:58:46;;;;;;;34.95;20.70;;;9.90;99.90;;;;;;5051078;28;20052;-72
2023/10/26 07:01:11;;;;;;;36.13;22.23;;;9.90;99.90;;;;;;5049484;28;20053;-73
2023/10/26 07:03:40;;;;;;;31.70;18.92;;;10.00;99.90;;;;;;5049687;28;20393;-74
2023/10/26 07:06:06;;;;;;;32.85;19.30;;;9.90;99.90;;;;;;5049763;28;20053;-73
2023/10/26 07:08:36;;;;;;;33.50;19.88;;;9.90;99.90;;;;;;5049278;28;20134;-73
2023/10/26 07:11:05;;;;;;;35.03;20.05;;;9.80;99.90;;;;;;5048906;28;20049;-73
2023/10/26 07:13:31;;;;;;;34.63;21.45;;;9.80;99.90;;;;;;5049456;28;20083;-74
2023/10/26 07:16:01;;;;;;;29.73;19.67;;;9.90;99.90;;;;;;5047740;28;20523;-73
2023/10/26 07:18:27;;;;;;;35.53;21.35;;;9.80;99.90;;;;;;5048092;28;20045;-74
2023/10/26 07:20:53;;;;;;;38.75;21.95;;;9.80;99.90;;;;;;5049268;28;20053;-72
2023/10/26 07:23:19;;;;;;;37.63;21.73;;;9.90;99.90;;;;;;5049150;28;20053;-73
2023/10/26 07:25:45;;;;;;;35.47;20.73;;;9.90;99.90;;;;;;5049026;28;20084;-73
2023/10/26 07:28:12;;;;;;;37.97;22.80;;;9.90;99.90;;;;;;5049491;28;20048;-73
2023/10/26 07:30:44;;;;;;;43.67;23.38;;;9.90;99.90;;;;;;5047792;28;20056;-73
2023/10/26 07:33:10;;;;;;;40.75;23.52;;;9.90;99.90;;;;;;5049111;28;20521;-73
2023/10/26 07:35:41;;;;;;;43.75;23.77;;;10.00;99.90;;;;;;5047538;28;20128;-72
2023/10/26 07:38:08;;;;;;;41.15;22.98;;;10.00;99.90;;;;;;5048915;28;20049;-72
2023/10/26 07:40:34;;;;;;;46.17;23.70;;;10.00;99.90;;;;;;5049453;28;20447;-72
2023/10/26 07:43:00;;;;;;;44.17;24.77;;;10.00;99.90;;;;;;5048539;28;20049;-74
2023/10/26 07:45:26;;;;;;;48.50;25.10;;;10.00;99.90;;;;;;5048408;28;20041;-72
2023/10/26 07:47:51;;;;;;;45.97;24.25;;;10.00;99.90;;;;;;5047056;28;20531;-72
2023/10/26 07:50:19;;;;;;;52.65;24.55;;;10.10;99.90;;;;;;5048068;28;20045;-73
2023/10/26 07:52:46;;;;;;;44.25;25.73;;;10.10;99.90;;;;;;5019038;28;20053;-72
2023/10/26 07:55:12;;;;;;;46.97;23.75;;;10.10;99.90;;;;;;5046482;28;20045;-72
2023/10/26 07:57:38;;;;;;;41.45;23.23;;;10.20;99.90;;;;;;5042978;28;20053;-73
2023/10/26 08:00:05;;;;;;;45.63;23.95;;;10.20;99.90;;;;;;5044180;28;20488;-71
2023/10/26 08:02:33;;;;;;;44.00;24.05;;;10.20;99.90;;;;;;5006677;28;20076;-73
2023/10/26 08:04:59;;;;;;;43.00;23.52;;;10.30;99.90;;;;;;5030341;28;20060;-72
2023/10/26 08:07:25;;;;;;;48.40;24.08;;;10.30;99.90;;;;;;5048499;28;20084;-73
2023/10/26 08:09:51;;;;;;;40.88;22.45;;;10.30;99.90;;;;;;5044332;28;20050;-72
2023/10/26 08:12:16;;;;;;;43.58;24.20;;;10.30;99.90;;;;;;5051971;28;20111;-73
2023/10/26 08:14:42;;;;;;;45.53;24.73;;;10.30;99.90;;;;;;5052416;28;20127;-73
2023/10/26 08:17:08;;;;;;;42.85;22.77;;;10.30;99.90;;;;;;5052465;28;20049;-73
2023/10/26 08:19:33;;;;;;;43.70;23.48;;;10.30;99.90;;;;;;5052385;28;20520;-71
2023/10/26 08:21:59;;;;;;;42.55;23.23;;;10.30;99.90;;;;;;5052289;28;20104;-72
2023/10/26 08:24:25;;;;;;;41.80;22.20;;;10.40;99.90;;;;;;5052343;28;20484;-72
2023/10/26 08:26:51;;;;;;;39.35;21.77;;;10.40;99.90;;;;;;5052201;28;20056;-72
2023/10/26 08:29:17;;;;;;;39.78;21.33;;;10.40;99.90;;;;;;5052934;28;20049;-72
2023/10/26 08:31:43;;;;;;;41.25;22.15;;;10.40;99.90;;;;;;5017843;28;20049;-72
2023/10/26 08:34:08;;;;;;;35.75;20.15;;;10.40;99.90;;;;;;5047342;28;20044;-72
2023/10/26 08:36:34;;;;;;;38.95;21.80;;;10.40;99.90;;;;;;5046072;28;20051;-71
2023/10/26 08:39:00;;;;;;;31.52;20.00;;;10.50;99.90;;;;;;5029291;28;20052;-72
2023/10/26 08:41:30;;;;;;;36.13;21.42;;;10.50;99.90;;;;;;5051321;28;20049;-72
2023/10/26 08:43:56;;;;;;;38.60;22.10;;;10.50;99.90;;;;;;5052114;28;20064;-73
2023/10/26 08:46:21;;;;;;;39.33;21.88;;;10.50;99.90;;;;;;5051846;28;20044;-71
2023/10/26 08:48:51;;;;;;;35.80;19.73;;;10.60;99.90;;;;;;5045817;28;20129;-71
2023/10/26 08:51:17;;;;;;;33.90;19.77;;;10.60;99.90;;;;;;5045704;28;20045;-71
2023/10/26 08:53:43;;;;;;;38.17;21.55;;;10.60;99.90;;;;;;5029562;28;20114;-71
2023/10/26 08:56:11;;;;;;;33.00;19.85;;;10.60;99.90;;;;;;5046073;28;20092;-71
2023/10/26 08:58:37;;;;;;;32.80;18.52;;;10.70;99.90;;;;;;5049801;28;20060;-72
2023/10/26 09:01:06;;;;;;;35.22;19.80;;;10.70;99.90;;;;;;5033619;28;20509;-71
2023/10/26 09:03:34;;;;;;;30.13;18.13;;;10.70;99.90;;;;;;5046064;28;20055;-71
2023/10/26 09:06:00;;;;;;;33.33;18.23;;;10.60;99.90;;;;;;5045710;28;20052;-71
2023/10/26 09:08:30;;;;;;;28.27;17.30;;;10.60;99.90;;;;;;5042936;28;20634;-70
2023/10/26 09:10:56;;;;;;;28.77;16.27;;;10.60;99.90;;;;;;5039727;28;20074;-71
2023/10/26 09:13:25;;;;;;;34.65;17.52;;;10.70;99.90;;;;;;5043803;28;20652;-71
2023/10/26 09:15:54;;;;;;;29.35;17.67;;;10.70;99.90;;;;;;5046567;28;20492;-71
2023/10/26 09:18:21;;;;;;;31.30;18.77;;;10.60;99.90;;;;;;5030075;28;20045;-72
2023/10/26 09:21:04;;;;;;;26.73;16.48;;;10.60;99.90;;;;;;5030675;28;20080;-71
2023/10/26 09:23:32;;;;;;;29.95;17.08;;;10.50;99.90;;;;;;5019807;28;20049;-72
2023/10/26 09:26:03;;;;;;;29.73;17.02;;;10.50;99.90;;;;;;5046310;28;20131;-71
2023/10/26 09:28:30;;;;;;;32.33;16.77;;;10.60;99.90;;;;;;5045177;28;20481;-71
2023/10/26 09:30:59;;;;;;;27.90;16.48;;;10.60;99.90;;;;;;5025001;28;20050;-72
2023/10/26 09:33:27;;;;;;;31.75;16.30;;;10.60;99.90;;;;;;5036958;28;20056;-71
2023/10/26 09:35:53;;;;;;;25.00;17.05;;;10.60;99.90;;;;;;5045266;28;20114;-71
2023/10/26 09:38:35;;;;;;;27.27;16.75;;;10.60;99.90;;;;;;5034304;28;20464;-70
2023/10/26 09:41:05;;;;;;;28.42;17.70;;;10.60;99.90;;;;;;5033090;28;20138;-71
2023/10/26 09:43:31;;;;;;;23.85;16.63;;;10.70;99.90;;;;;;5050950;28;20049;-70
2023/10/26 09:45:57;;;;;;;24.73;16.40;;;10.60;99.90;;;;;;5051368;28;20521;-71
2023/10/26 09:48:24;;;;;;;24.42;15.40;;;10.60;99.90;;;;;;5050773;28;20514;-71
2023/10/26 09:50:52;;;;;;;27.75;16.20;;;10.70;99.90;;;;;;5050943;28;20467;-71
2023/10/26 09:53:20;;;;;;;27.95;16.90;;;10.70;99.90;;;;;;5051019;28;20131;-72
2023/10/26 09:55:47;;;;;;;29.13;15.90;;;10.80;99.90;;;;;;5033326;28;20063;-72
2023/10/26 09:58:16;;;;;;;26.13;15.57;;;10.80;99.90;;;;;;5051013;28;20045;-71
2023/10/26 10:00:41;;;;;;;28.75;15.60;;;10.80;99.90;;;;;;5050696;28;20060;-71
2023/10/26 10:03:11;;;;;;;23.55;14.57;;;10.90;99.90;;;;;;5050827;28;20057;-72
2023/10/26 10:05:38;;;;;;;22.92;14.55;;;10.90;99.90;;;;;;5050303;28;20049;-71
2023/10/26 10:08:04;;;;;;;23.48;15.00;;;10.90;99.90;;;;;;5032503;28;20085;-72
2023/10/26 10:10:30;;;;;;;25.15;15.50;;;11.00;99.90;;;;;;5050286;28;20594;-70
2023/10/26 10:12:56;;;;;;;30.02;17.30;;;11.00;99.90;;;;;;5034939;28;20052;-71
2023/10/26 10:15:38;;;;;;;25.98;16.08;;;11.00;99.90;;;;;;5050333;28;20548;-71
2023/10/26 10:18:05;;;;;;;25.85;15.20;;;11.00;99.90;;;;;;5032420;28;20481;-70
2023/10/26 10:20:33;;;;;;;27.92;16.75;;;11.00;99.90;;;;;;5032312;28;20092;-71
2023/10/26 10:23:00;;;;;;;27.58;15.70;;;11.10;99.90;;;;;;5032447;28;20049;-72
2023/10/26 10:25:49;;;;;;;23.08;15.57;;;11.20;99.90;;;;;;5032184;28;20057;-70
2023/10/26 10:28:15;;;;;;;21.85;13.60;;;11.20;99.90;;;;;;5033442;28;20045;-70
2023/10/26 10:31:00;;;;;;;27.60;16.05;;;11.20;99.90;;;;;;5032466;28;20060;-69
2023/10/26 10:33:27;;;;;;;24.23;14.45;;;11.10;99.90;;;;;;5050250;28;20083;-71
2023/10/26 10:36:01;;;;;;;24.25;14.23;;;11.20;99.90;;;;;;5032203;28;20067;-71
2023/10/26 10:38:28;;;;;;;25.48;15.10;;;11.20;99.90;;;;;;5050260;28;20057;-70
2023/10/26 10:40:54;;;;;;;28.60;15.35;;;11.20;99.90;;;;;;5032342;28;20386;-70
2023/10/26 10:43:34;;;;;;;22.23;13.57;;;11.30;99.90;;;;;;5032004;28;20083;-70
2023/10/26 10:46:12;;;;;;;22.63;13.52;;;11.30;99.90;;;;;;5049875;28;20469;-71
2023/10/26 10:48:57;;;;;;;18.17;13.15;;;11.30;99.90;;;;;;5049928;28;20067;-70
2023/10/26 10:51:29;;;;;;;22.50;13.35;;;11.20;99.90;;;;;;5007859;28;20050;-71
2023/10/26 10:53:55;;;;;;;;;;;11.30;99.90;;;;;;5038441;28;20052;-71
2023/10/26 10:56:23;;;;;;;20.55;12.77;;;11.40;99.90;;;;;;5021375;28;20352;-71
2023/10/26 10:58:52;;;;;;;21.45;14.25;;;11.40;99.90;;;;;;5048111;28;20591;-71
2023/10/26 11:01:20;;;;;;;24.92;15.93;;;11.40;99.90;;;;;;5033969;28;20528;-70
2023/10/26 11:03:46;;;;;;;23.35;14.52;;;11.50;99.90;;;;;;5047211;28;20497;-70
2023/10/26 11:06:16;;;;;;;26.17;13.73;;;11.40;99.90;;;;;;5046603;28;20045;-71
2023/10/26 11:08:42;;;;;;;21.20;13.63;;;11.50;99.90;;;;;;5036962;28;20084;-72
2023/10/26 11:11:08;;;;;;;22.35;13.68;;;11.50;99.90;;;;;;5042435;28;20886;-71
2023/10/26 11:13:34;;;;;;;21.88;14.38;;;11.50;99.90;;;;;;5050872;28;20048;-71
2023/10/26 11:15:59;;;;;;;23.80;13.82;;;11.50;99.90;;;;;;5031359;28;20036;-70
2023/10/26 11:18:26;;;;;;;21.38;13.20;;;11.50;99.90;;;;;;5048420;28;20055;-71
2023/10/26 11:20:52;;;;;;;21.58;13.10;;;11.60;99.90;;;;;;5045816;28;20053;-71
2023/10/26 11:23:22;;;;;;;23.48;13.85;;;11.60;99.90;;;;;;5069081;28;20075;-70
2023/10/26 11:25:48;;;;;;;21.95;13.25;;;11.70;99.90;;;;;;5050895;28;20055;-70
2023/10/26 11:28:14;;;;;;;21.83;13.20;;;11.70;99.90;;;;;;5069054;28;20056;-70
2023/10/26 11:30:46;;;;;;;20.88;13.32;;;11.70;99.90;;;;;;5068751;28;20397;-70
2023/10/26 11:33:35;;;;;;;19.23;13.13;;;11.70;99.90;;;;;;5068946;28;20059;-70
2023/10/26 11:36:06;;;;;;;22.45;12.48;;;11.70;99.90;;;;;;5051254;28;20059;-70
2023/10/26 11:38:32;;;;;;;21.38;13.20;;;11.80;99.90;;;;;;5051033;28;20088;-70
2023/10/26 11:40:57;;;;;;;19.95;13.38;;;11.70;99.90;;;;;;5068765;28;20079;-70
2023/10/26 11:43:33;;;;;;;24.38;15.35;;;11.70;99.90;;;;;;5069030;28;20165;-70
2023/10/26 11:45:59;;;;;;;23.05;12.75;;;11.70;99.90;;;;;;5069046;28;20042;-70
2023/10/26 11:48:29;;;;;;;19.40;12.80;;;11.70;99.90;;;;;;5068782;28;20048;-70
2023/10/26 11:50:55;;;;;;;16.55;11.60;;;11.70;99.90;;;;;;5050523;28;20056;-70
2023/10/26 11:53:23;;;;;;;18.27;11.77;;;11.80;99.90;;;;;;5069045;28;20056;-70
2023/10/26 11:55:50;;;;;;;16.67;10.48;;;11.80;99.90;;;;;;5068749;28;20135;-70
2023/10/26 11:58:16;;;;;;;14.52;10.45;;;11.90;99.90;;;;;;5068441;28;20053;-70
2023/10/26 12:00:42;;;;;;;15.52;9.40;;;12.00;99.90;;;;;;5068717;28;20095;-69
2023/10/26 12:03:08;;;;;;;14.60;9.20;;;12.00;99.90;;;;;;5068727;28;20123;-70
2023/10/26 12:05:34;;;;;;;14.93;9.68;;;12.00;99.90;;;;;;5068519;28;20045;-70
2023/10/26 12:08:00;;;;;;;15.27;9.27;;;12.10;99.90;;;;;;5068847;28;20053;-69
2023/10/26 12:10:26;;;;;;;15.50;9.48;;;12.10;99.90;;;;;;5069605;28;20075;-70
2023/10/26 12:12:53;;;;;;;11.55;8.23;;;12.10;99.90;;;;;;5069029;28;20664;-70
2023/10/26 12:15:20;;;;;;;12.23;9.25;;;12.20;99.90;;;;;;5068664;28;20139;-70
2023/10/26 12:17:47;;;;;;;14.30;8.80;;;12.20;99.90;;;;;;5068461;28;20059;-70
2023/10/26 12:20:14;;;;;;;12.05;8.43;;;12.20;99.90;;;;;;5068540;28;20059;-70
2023/10/26 12:22:41;;;;;;;11.60;8.27;;;12.20;99.90;;;;;;5050467;28;20044;-71
2023/10/26 12:25:07;;;;;;;10.32;7.78;;;12.20;99.90;;;;;;5050549;28;20310;-71
2023/10/26 12:27:34;;;;;;;13.05;8.13;;;12.20;99.90;;;;;;5069011;28;20477;-70